Pineville, New York
Current Conditions -  °F | °C
As of 1:55 AM on Thursday 27 Nov 2014 (Local Time) from KMSV Reporting Station
Clear Clear  
Wind Chill: -6°   Ceiling: Unl
Heat Index: -2°   Visibility: 10mi
Dew Point: -3°   Wind: 8mph
Humidity: 93%   Direction: 290°WNW
Pressure: 29.85"   Gusts: NA
Location:  42.1536°N, 75.1637°W
Report Text: KMSV 270655Z AUTO 29007KT 10SM CLR M02/M03 A2985 RMK AO1
Loading
Personal Weather Stations






























Interactive Weather Map New forecast layout! Learn more

10-Day Weather Forecast

Advertisements
Track Severe Weather on mobile